createdAt,value
2022-10-17T00:02:39.965Z,996.3
2022-10-17T00:03:46.408Z,996.3
2022-10-17T00:04:52.855Z,996.3
2022-10-17T00:07:05.707Z,996.3
2022-10-17T00:09:18.557Z,996.3
2022-10-17T00:10:24.950Z,996.4
2022-10-17T00:11:49.905Z,996.4
2022-10-17T00:14:39.763Z,996.3
2022-10-17T00:16:23.262Z,996.3
2022-10-17T00:17:30.245Z,996.3
2022-10-17T00:18:55.401Z,996.3
2022-10-17T00:20:20.371Z,996.3
2022-10-17T00:21:45.335Z,996.3
2022-10-17T00:23:10.287Z,996.3
2022-10-17T00:24:35.192Z,996.3
2022-10-17T00:25:41.626Z,996.3
2022-10-17T00:27:54.467Z,996.3
2022-10-17T00:29:19.401Z,996.3
2022-10-17T00:31:02.882Z,996.3
2022-10-17T00:32:46.379Z,996.3
2022-10-17T00:34:29.849Z,996.3
2022-10-17T00:36:13.743Z,996.3
2022-10-17T00:38:15.751Z,996.3
2022-10-17T00:39:40.751Z,996.3
2022-10-17T00:41:24.162Z,996.3
2022-10-17T00:43:07.645Z,996.3
2022-10-17T00:44:51.094Z,996.3
2022-10-17T00:46:16.036Z,996.3
2022-10-17T00:47:40.981Z,996.3
2022-10-17T00:49:05.941Z,996.3
2022-10-17T00:50:30.891Z,996.3
2022-10-17T00:51:55.850Z,996.3
2022-10-17T00:53:20.811Z,996.3
2022-10-17T00:55:04.773Z,996.3
2022-10-17T00:56:11.177Z,996.3
2022-10-17T00:57:36.619Z,996.3
2022-10-17T00:59:01.627Z,996.4
2022-10-17T01:00:26.494Z,996.4
2022-10-17T01:01:51.463Z,996.4
2022-10-17T01:03:16.399Z,996.4
2022-10-17T01:04:41.349Z,996.4
2022-10-17T01:06:06.290Z,996.5
2022-10-17T01:07:33.099Z,996.5
2022-10-17T01:08:56.220Z,996.5
2022-10-17T01:10:39.667Z,996.5
2022-10-17T01:11:46.092Z,996.5
2022-10-17T01:13:11.055Z,996.5
2022-10-17T01:14:35.990Z,996.5
2022-10-17T01:16:48.828Z,996.5
2022-10-17T01:17:55.259Z,996.5
2022-10-17T01:19:01.659Z,996.5
2022-10-17T01:21:14.516Z,996.5
2022-10-17T01:22:20.954Z,996.5
2022-10-17T01:23:27.372Z,996.5
2022-10-17T01:24:33.823Z,996.4
2022-10-17T01:26:46.645Z,996.4
2022-10-17T01:27:53.090Z,996.4
2022-10-17T01:29:17.999Z,996.4
2022-10-17T01:30:42.953Z,996.3
2022-10-17T01:32:07.908Z,996.3
2022-10-17T01:33:51.393Z,996.3
2022-10-17T01:34:57.786Z,996.3
2022-10-17T01:36:22.746Z,996.3
2022-10-17T01:37:47.707Z,996.3
2022-10-17T01:39:32.497Z,996.3
2022-10-17T01:40:37.611Z,996.3
2022-10-17T01:42:02.560Z,996.4
2022-10-17T01:43:27.506Z,996.4
2022-10-17T01:45:10.967Z,996.4
2022-10-17T01:46:35.922Z,996.4
2022-10-17T01:47:42.421Z,996.4
2022-10-17T01:48:48.794Z,996.4
2022-10-17T01:49:55.184Z,996.4
2022-10-17T01:51:01.639Z,996.4
2022-10-17T01:52:08.032Z,996.4
2022-10-17T01:54:20.885Z,996.4
2022-10-17T01:55:27.298Z,996.4
2022-10-17T01:56:33.755Z,996.4
2022-10-17T01:57:40.168Z,996.4
2022-10-17T01:58:46.586Z,996.4
2022-10-17T01:59:53.006Z,996.4
2022-10-17T02:02:05.855Z,996.4
2022-10-17T02:03:30.790Z,996.3
2022-10-17T02:04:55.845Z,996.3
2022-10-17T02:06:20.681Z,996.3
2022-10-17T02:09:10.583Z,996.2
2022-10-17T02:10:54.063Z,996.2
2022-10-17T02:12:00.539Z,996.2
2022-10-17T02:13:25.442Z,996.2
2022-10-17T02:14:50.373Z,996.1
2022-10-17T02:16:15.353Z,996.1
2022-10-17T02:17:40.281Z,996.1
2022-10-17T02:19:05.233Z,996.1
2022-10-17T02:20:30.171Z,996.1
2022-10-17T02:21:55.136Z,996.1
2022-10-17T02:23:20.106Z,996.1
2022-10-17T02:24:45.028Z,996.1
2022-10-17T02:26:28.756Z,996.1
2022-10-17T02:27:35.250Z,996.1
2022-10-17T02:29:00.203Z,996.1
2022-10-17T02:30:25.097Z,996.1
2022-10-17T02:31:50.045Z,996.1
2022-10-17T02:33:14.971Z,996.1
2022-10-17T02:34:21.424Z,996.1
2022-10-17T02:35:27.829Z,996.1
2022-10-17T02:36:34.255Z,996.1
2022-10-17T02:37:40.661Z,996.1
2022-10-17T02:38:47.091Z,996.1
2022-10-17T02:39:53.512Z,996.1
2022-10-17T02:40:59.947Z,996.1
2022-10-17T02:42:06.420Z,996.1
2022-10-17T02:43:12.830Z,996.1
2022-10-17T02:44:19.220Z,996.1
2022-10-17T02:45:25.643Z,996.1
2022-10-17T02:46:32.574Z,996.1
2022-10-17T02:47:38.981Z,996.1
2022-10-17T02:48:45.476Z,996.1
2022-10-17T02:49:51.905Z,996.1
2022-10-17T02:50:58.267Z,996.1
2022-10-17T02:52:04.696Z,996.1
2022-10-17T02:53:11.119Z,996.1
2022-10-17T02:54:17.538Z,996.1
2022-10-17T02:55:23.991Z,996.2
2022-10-17T02:57:36.823Z,996.2
2022-10-17T02:58:43.258Z,996.2
2022-10-17T02:59:49.667Z,996.2
2022-10-17T03:00:56.127Z,996.2
2022-10-17T03:02:02.509Z,996.2
2022-10-17T03:04:15.367Z,996.2
2022-10-17T03:05:21.786Z,996.2
2022-10-17T03:06:28.693Z,996.2
2022-10-17T03:07:35.127Z,996.2
2022-10-17T03:08:41.557Z,996.2
2022-10-17T03:09:48.011Z,996.2
2022-10-17T03:10:54.407Z,996.2
2022-10-17T03:12:00.824Z,996.2
2022-10-17T03:13:07.251Z,996.2
2022-10-17T03:14:13.693Z,996.2
2022-10-17T03:15:20.096Z,996.2
2022-10-17T03:16:26.519Z,996.2
2022-10-17T03:17:33.009Z,996.2
2022-10-17T03:18:39.377Z,996.2
2022-10-17T03:19:45.795Z,996.2
2022-10-17T03:20:52.229Z,996.1
2022-10-17T03:21:58.658Z,996.1
2022-10-17T03:23:05.070Z,996.1
2022-10-17T03:24:11.556Z,996.1
2022-10-17T03:25:17.980Z,996.1
2022-10-17T03:26:24.398Z,996.1
2022-10-17T03:28:37.291Z,996.2
2022-10-17T03:29:43.718Z,996.2
2022-10-17T03:30:50.114Z,996.2
2022-10-17T03:31:56.527Z,996.2
2022-10-17T03:33:02.947Z,996.2
2022-10-17T03:34:09.376Z,996.2
2022-10-17T03:35:15.800Z,996.2
2022-10-17T03:36:22.236Z,996.2
2022-10-17T03:37:28.808Z,996.2
2022-10-17T03:38:35.084Z,996.3
2022-10-17T03:40:47.929Z,996.3
2022-10-17T03:41:54.358Z,996.3
2022-10-17T03:44:07.615Z,996.3
2022-10-17T03:45:32.551Z,996.3
2022-10-17T03:47:16.013Z,996.3
2022-10-17T03:48:22.439Z,996.3
2022-10-17T03:49:47.395Z,996.3
2022-10-17T03:51:12.352Z,996.3
2022-10-17T03:52:37.400Z,996.3
2022-10-17T03:54:02.236Z,996.3
2022-10-17T03:55:27.190Z,996.3
2022-10-17T03:56:52.178Z,996.4
2022-10-17T03:58:17.629Z,996.4
2022-10-17T04:00:48.993Z,996.3
2022-10-17T04:01:55.371Z,996.3
2022-10-17T04:04:08.234Z,996.4
2022-10-17T04:05:14.653Z,996.4
2022-10-17T04:06:21.073Z,996.4
2022-10-17T04:07:27.691Z,996.4
2022-10-17T04:08:34.331Z,996.4
2022-10-17T04:09:40.751Z,996.4
2022-10-17T04:10:47.180Z,996.4
2022-10-17T04:12:12.130Z,996.4
2022-10-17T04:13:18.521Z,996.4
2022-10-17T04:14:24.997Z,996.4
2022-10-17T04:15:31.410Z,996.5
2022-10-17T04:16:37.825Z,996.5
2022-10-17T04:17:44.276Z,996.5
2022-10-17T04:18:50.698Z,996.5
2022-10-17T04:19:57.093Z,996.5
2022-10-17T04:22:09.945Z,996.5
2022-10-17T04:23:16.356Z,996.5
2022-10-17T04:24:22.792Z,996.5
2022-10-17T04:25:31.245Z,996.5
2022-10-17T04:27:42.060Z,996.6
2022-10-17T04:28:48.477Z,996.6
2022-10-17T04:29:54.904Z,996.6
2022-10-17T04:32:07.780Z,996.6
2022-10-17T04:33:51.213Z,996.6
2022-10-17T04:34:57.649Z,996.7
2022-10-17T04:36:22.597Z,996.7
2022-10-17T04:38:06.070Z,996.6
2022-10-17T04:40:37.442Z,996.6
2022-10-17T04:42:02.416Z,996.6
2022-10-17T04:43:27.389Z,996.6
2022-10-17T04:45:10.813Z,996.7
2022-10-17T04:46:17.244Z,996.7
2022-10-17T04:47:42.197Z,996.7
2022-10-17T04:48:48.585Z,996.7
2022-10-17T04:49:55.120Z,996.7
2022-10-17T04:51:01.435Z,996.7
2022-10-17T04:52:07.869Z,996.7
2022-10-17T04:53:14.315Z,996.7
2022-10-17T04:54:20.750Z,996.7
2022-10-17T04:55:27.148Z,996.7
2022-10-17T04:56:33.569Z,996.7
2022-10-17T04:57:40.136Z,996.7
2022-10-17T04:59:04.919Z,996.7
2022-10-17T05:00:11.387Z,996.7
2022-10-17T05:01:17.809Z,996.7
2022-10-17T05:02:24.207Z,996.7
2022-10-17T05:03:30.645Z,996.7
2022-10-17T05:04:37.060Z,996.7
2022-10-17T05:05:43.486Z,996.7
2022-10-17T05:06:49.899Z,996.8
2022-10-17T05:07:56.322Z,996.8
2022-10-17T05:09:03.299Z,996.8
2022-10-17T05:10:09.700Z,996.8
2022-10-17T05:11:16.165Z,996.8
2022-10-17T05:12:22.558Z,996.8
2022-10-17T05:13:28.987Z,996.8
2022-10-17T05:14:35.413Z,996.8
2022-10-17T05:15:41.836Z,996.8
2022-10-17T05:16:48.249Z,996.8
2022-10-17T05:19:01.176Z,996.8
2022-10-17T05:20:07.557Z,996.8
2022-10-17T05:21:13.964Z,996.8
2022-10-17T05:22:20.375Z,996.8
2022-10-17T05:23:26.803Z,996.8
2022-10-17T05:24:33.232Z,996.9
2022-10-17T05:25:39.655Z,996.9
2022-10-17T05:26:46.091Z,996.9
2022-10-17T05:27:52.510Z,996.9
2022-10-17T05:28:59.542Z,996.9
2022-10-17T05:31:12.301Z,996.9
2022-10-17T05:32:18.732Z,996.9
2022-10-17T05:33:25.162Z,996.9
2022-10-17T05:34:31.613Z,997
2022-10-17T05:35:38.004Z,997
2022-10-17T05:36:44.449Z,997
2022-10-17T05:38:57.274Z,997
2022-10-17T05:40:22.220Z,997.1
2022-10-17T05:41:47.170Z,997.1
2022-10-17T05:43:12.119Z,997.1
2022-10-17T05:44:37.059Z,997.1
2022-10-17T05:46:01.999Z,997.2
2022-10-17T05:47:27.240Z,997.2
2022-10-17T05:48:51.918Z,997.2
2022-10-17T05:50:16.950Z,997.2
2022-10-17T05:51:41.898Z,997.2
2022-10-17T05:53:06.831Z,997.2
2022-10-17T05:54:31.757Z,997.2
2022-10-17T05:55:38.177Z,997.2
2022-10-17T05:56:44.602Z,997.2
2022-10-17T05:57:51.034Z,997.2
2022-10-17T05:59:00.979Z,997.3
2022-10-17T06:00:03.894Z,997.3
2022-10-17T06:01:12.029Z,997.3
2022-10-17T06:02:16.777Z,997.3
2022-10-17T06:03:23.156Z,997.3
2022-10-17T06:05:36.037Z,997.3
2022-10-17T06:07:48.871Z,997.4
2022-10-17T06:09:32.309Z,997.3
2022-10-17T06:10:38.716Z,997.3
2022-10-17T06:12:03.683Z,997.3
2022-10-17T06:13:28.628Z,997.3
2022-10-17T06:14:53.606Z,997.3
2022-10-17T06:16:18.531Z,997.3
2022-10-17T06:18:02.004Z,997.3
2022-10-17T06:19:08.443Z,997.3
2022-10-17T06:20:33.382Z,997.4
2022-10-17T06:21:58.378Z,997.4
2022-10-17T06:23:23.262Z,997.4
2022-10-17T06:24:29.682Z,997.4
2022-10-17T06:25:36.110Z,997.4
2022-10-17T06:26:42.541Z,997.4
2022-10-17T06:28:55.423Z,997.4
2022-10-17T06:31:08.247Z,997.5
2022-10-17T06:32:15.183Z,997.5
2022-10-17T06:33:21.087Z,997.5
2022-10-17T06:35:34.056Z,997.5
2022-10-17T06:36:40.488Z,997.5
2022-10-17T06:38:05.445Z,997.5
2022-10-17T06:39:30.361Z,997.5
2022-10-17T06:40:55.310Z,997.5
2022-10-17T06:42:20.253Z,997.5
2022-10-17T06:43:45.209Z,997.5
2022-10-17T06:45:10.169Z,997.5
2022-10-17T06:46:35.101Z,997.5
2022-10-17T06:48:00.112Z,997.6
2022-10-17T06:49:25.012Z,997.6
2022-10-17T06:50:50.221Z,997.6
2022-10-17T06:52:15.155Z,997.6
2022-10-17T06:54:28.005Z,997.6
2022-10-17T06:55:34.423Z,997.6
2022-10-17T06:58:53.705Z,997.7
2022-10-17T07:00:00.135Z,997.7
2022-10-17T07:02:13.382Z,997.7
2022-10-17T07:03:19.821Z,997.7
2022-10-17T07:04:26.244Z,997.7
2022-10-17T07:06:39.083Z,997.7
2022-10-17T07:08:04.020Z,997.7
2022-10-17T07:09:29.043Z,997.8
2022-10-17T07:11:12.639Z,997.8
2022-10-17T07:12:19.005Z,997.8
2022-10-17T07:13:44.543Z,997.8
2022-10-17T07:15:09.395Z,997.8
2022-10-17T07:16:34.403Z,997.8
2022-10-17T07:17:59.291Z,997.8
2022-10-17T07:19:24.257Z,997.8
2022-10-17T07:20:49.203Z,997.8
2022-10-17T07:22:14.134Z,997.8
2022-10-17T07:23:20.573Z,997.8
2022-10-17T07:24:26.988Z,997.8
2022-10-17T07:25:35.201Z,997.8
2022-10-17T07:26:39.940Z,997.8
2022-10-17T07:27:46.266Z,997.8
2022-10-17T07:29:59.101Z,997.8
2022-10-17T07:31:05.547Z,997.8
2022-10-17T07:32:11.962Z,997.8
2022-10-17T07:33:18.388Z,997.8
2022-10-17T07:34:24.815Z,997.8
2022-10-17T07:35:31.240Z,997.8
2022-10-17T07:36:37.650Z,997.8
2022-10-17T07:37:44.096Z,997.8
2022-10-17T07:38:50.514Z,997.8
2022-10-17T07:41:03.365Z,997.9
2022-10-17T07:42:09.825Z,997.9
2022-10-17T07:43:16.516Z,997.9
2022-10-17T07:44:41.431Z,997.9
2022-10-17T07:46:06.378Z,997.9
2022-10-17T07:47:31.682Z,997.9
2022-10-17T07:48:56.286Z,997.9
2022-10-17T07:50:21.240Z,997.9
2022-10-17T07:53:11.151Z,997.9
2022-10-17T07:54:36.104Z,997.9
2022-10-17T07:56:01.049Z,997.9
2022-10-17T07:57:26.048Z,997.9
2022-10-17T07:58:50.961Z,997.9
2022-10-17T08:00:32.432Z,997.9
2022-10-17T08:01:38.770Z,997.9
2022-10-17T08:02:45.312Z,997.9
2022-10-17T08:03:51.628Z,997.9
2022-10-17T08:04:58.052Z,997.9
2022-10-17T08:06:04.462Z,997.9
2022-10-17T08:07:20.849Z,997.9
2022-10-17T08:08:17.514Z,997.9
2022-10-17T08:09:23.861Z,998
2022-10-17T08:10:30.297Z,998
2022-10-17T08:11:36.728Z,998
2022-10-17T08:13:49.600Z,998
2022-10-17T08:14:56.026Z,998
2022-10-17T08:16:02.425Z,998
2022-10-17T08:18:15.279Z,997.9
2022-10-17T08:19:40.221Z,997.9
2022-10-17T08:21:05.158Z,997.9
2022-10-17T08:22:30.354Z,997.9
2022-10-17T08:23:55.054Z,997.9
2022-10-17T08:25:19.992Z,997.9
2022-10-17T08:26:47.177Z,997.9
2022-10-17T08:28:09.922Z,997.9
2022-10-17T08:29:34.893Z,997.9
2022-10-17T08:30:59.814Z,997.9
2022-10-17T08:32:24.764Z,997.9
2022-10-17T08:34:56.118Z,997.9
2022-10-17T08:36:02.549Z,997.9
2022-10-17T08:37:08.965Z,997.9
2022-10-17T08:38:16.866Z,997.9
2022-10-17T08:39:21.816Z,997.9
2022-10-17T08:40:28.241Z,997.9
2022-10-17T08:41:34.663Z,997.9
2022-10-17T08:42:41.089Z,997.9
2022-10-17T08:43:47.500Z,997.9
2022-10-17T08:44:53.959Z,997.9
2022-10-17T08:46:00.393Z,997.9
2022-10-17T08:48:13.205Z,997.9
2022-10-17T08:49:19.629Z,997.9
2022-10-17T08:50:26.545Z,997.9
2022-10-17T08:51:32.967Z,997.9
2022-10-17T08:52:39.415Z,997.8
2022-10-17T08:54:52.273Z,997.8
2022-10-17T08:56:19.699Z,997.9
2022-10-17T08:57:42.132Z,997.9
2022-10-17T08:59:07.076Z,997.8
2022-10-17T09:00:32.046Z,997.8
2022-10-17T09:01:56.946Z,997.8
2022-10-17T09:03:21.968Z,997.8
2022-10-17T09:04:46.862Z,997.8
2022-10-17T09:06:11.822Z,997.9
2022-10-17T09:07:36.762Z,997.9
2022-10-17T09:09:01.729Z,997.8
2022-10-17T09:10:26.680Z,997.8
2022-10-17T09:11:51.614Z,997.8
2022-10-17T09:12:58.035Z,997.8
2022-10-17T09:14:04.506Z,997.8
2022-10-17T09:15:10.860Z,997.8
2022-10-17T09:16:17.348Z,997.8
2022-10-17T09:18:30.160Z,997.9
2022-10-17T09:20:43.012Z,997.8
2022-10-17T09:21:49.428Z,997.9
2022-10-17T09:24:09.242Z,997.8
2022-10-17T09:25:45.853Z,997.8
2022-10-17T09:26:52.245Z,997.8
2022-10-17T09:28:17.204Z,997.8
2022-10-17T09:29:43.912Z,997.8
2022-10-17T09:31:07.112Z,997.8
2022-10-17T09:32:32.307Z,997.7
2022-10-17T09:33:57.041Z,997.7
2022-10-17T09:35:21.962Z,997.7
2022-10-17T09:37:05.421Z,997.8
2022-10-17T09:38:11.844Z,997.8
2022-10-17T09:40:43.201Z,997.8
2022-10-17T09:42:56.056Z,997.9
2022-10-17T09:45:08.903Z,997.9
2022-10-17T09:46:15.330Z,997.9
2022-10-17T09:47:21.763Z,997.9
2022-10-17T09:48:28.246Z,997.9
2022-10-17T09:49:34.652Z,997.8
2022-10-17T09:50:41.088Z,997.8
2022-10-17T09:51:47.497Z,997.8
2022-10-17T09:52:53.924Z,997.8
2022-10-17T09:54:18.867Z,997.7
2022-10-17T09:55:43.800Z,997.7
2022-10-17T09:57:08.755Z,997.7
2022-10-17T09:58:33.709Z,997.7
2022-10-17T09:59:58.746Z,997.7
2022-10-17T10:01:24.115Z,997.7
2022-10-17T10:02:48.578Z,997.7
2022-10-17T10:04:13.567Z,997.7
2022-10-17T10:05:38.469Z,997.7
2022-10-17T10:07:03.394Z,997.7
2022-10-17T10:08:28.335Z,997.7
2022-10-17T10:10:41.203Z,997.7
2022-10-17T10:11:47.609Z,997.7
2022-10-17T10:12:54.101Z,997.7
2022-10-17T10:14:00.510Z,997.7
2022-10-17T10:15:06.932Z,997.7
2022-10-17T10:16:13.352Z,997.7
2022-10-17T10:17:19.787Z,997.7
2022-10-17T10:18:26.310Z,997.7
2022-10-17T10:19:32.650Z,997.7
2022-10-17T10:20:39.069Z,997.8
2022-10-17T10:21:47.109Z,997.8
2022-10-17T10:22:52.912Z,997.8
2022-10-17T10:25:04.779Z,997.8
2022-10-17T10:26:29.684Z,997.8
2022-10-17T10:28:13.171Z,997.8
2022-10-17T10:29:19.596Z,997.8
2022-10-17T10:30:44.539Z,997.8
2022-10-17T10:32:09.497Z,997.8
2022-10-17T10:33:34.447Z,997.8
2022-10-17T10:34:59.424Z,997.8
2022-10-17T10:36:24.869Z,997.8
2022-10-17T10:37:50.233Z,997.8
2022-10-17T10:39:15.172Z,997.8
2022-10-17T10:40:40.092Z,997.8
2022-10-17T10:42:52.960Z,997.8
2022-10-17T10:43:59.360Z,997.7
2022-10-17T10:45:05.796Z,997.7
2022-10-17T10:46:12.242Z,997.7
2022-10-17T10:47:18.658Z,997.7
2022-10-17T10:48:25.082Z,997.7
2022-10-17T10:49:31.510Z,997.7
2022-10-17T10:50:39.651Z,997.6
2022-10-17T10:51:44.394Z,997.6
2022-10-17T10:52:50.787Z,997.6
2022-10-17T10:53:57.203Z,997.6
2022-10-17T10:55:03.644Z,997.6
2022-10-17T10:56:10.063Z,997.7
2022-10-17T10:58:23.358Z,997.7
2022-10-17T10:59:48.300Z,997.7
2022-10-17T11:01:13.331Z,997.7
2022-10-17T11:02:38.227Z,997.7
2022-10-17T11:04:03.133Z,997.7
2022-10-17T11:05:28.094Z,997.7
2022-10-17T11:07:11.591Z,997.7
2022-10-17T11:08:17.985Z,997.7
2022-10-17T11:09:42.933Z,997.7
2022-10-17T11:11:07.898Z,997.7
2022-10-17T11:12:33.376Z,997.7
2022-10-17T11:13:58.750Z,997.7
2022-10-17T11:15:05.164Z,997.7
2022-10-17T11:16:11.575Z,997.7
2022-10-17T11:17:18.028Z,997.7
2022-10-17T11:18:24.443Z,997.7
2022-10-17T11:19:30.858Z,997.7
2022-10-17T11:20:37.305Z,997.7
2022-10-17T11:21:43.788Z,997.7
2022-10-17T11:22:50.191Z,997.7
2022-10-17T11:23:56.577Z,997.7
2022-10-17T11:25:02.988Z,997.7
2022-10-17T11:26:09.426Z,997.7
2022-10-17T11:27:15.843Z,997.7
2022-10-17T11:28:22.337Z,997.6
2022-10-17T11:29:28.695Z,997.6
2022-10-17T11:30:35.233Z,997.6
2022-10-17T11:31:41.551Z,997.6
2022-10-17T11:35:01.263Z,997.6
2022-10-17T11:36:26.199Z,997.6
2022-10-17T11:37:51.144Z,997.6
2022-10-17T11:39:16.128Z,997.6
2022-10-17T11:40:41.053Z,997.6
2022-10-17T11:42:05.996Z,997.6
2022-10-17T11:43:30.939Z,997.6
2022-10-17T11:44:55.885Z,997.5
2022-10-17T11:46:20.860Z,997.5
2022-10-17T11:48:04.322Z,997.5
2022-10-17T11:49:10.818Z,997.5
2022-10-17T11:52:56.228Z,997.4
2022-10-17T11:53:54.940Z,997.4
2022-10-17T11:55:01.394Z,997.4
2022-10-17T11:56:07.802Z,997.3
2022-10-17T11:57:14.889Z,997.3
2022-10-17T11:59:27.382Z,997.3
2022-10-17T12:00:34.897Z,997.3
2022-10-17T12:02:46.664Z,997.2
2022-10-17T12:04:59.503Z,997.2
2022-10-17T12:06:28.532Z,997.2
2022-10-17T12:07:49.398Z,997.2
2022-10-17T12:09:14.341Z,997.2
2022-10-17T12:10:39.345Z,997.2
2022-10-17T12:12:04.289Z,997.2
2022-10-17T12:13:29.208Z,997.1
2022-10-17T12:14:54.153Z,997.1
2022-10-17T12:16:19.099Z,997.1
2022-10-17T12:17:44.042Z,997.1
2022-10-17T12:19:08.985Z,997.1
2022-10-17T12:20:33.926Z,997
2022-10-17T12:21:42.768Z,997
2022-10-17T12:23:53.259Z,997
2022-10-17T12:24:59.675Z,997
2022-10-17T12:26:06.105Z,997
2022-10-17T12:27:12.517Z,997
2022-10-17T12:28:18.951Z,997
2022-10-17T12:29:25.393Z,997
2022-10-17T12:30:31.803Z,997
2022-10-17T12:31:38.231Z,997
2022-10-17T12:33:00.298Z,997
2022-10-17T12:34:57.509Z,997
2022-10-17T12:37:47.383Z,996.9
2022-10-17T12:39:12.325Z,996.9
2022-10-17T12:40:37.261Z,996.9
2022-10-17T12:42:20.760Z,996.9
2022-10-17T12:43:27.170Z,996.9
2022-10-17T12:44:52.117Z,996.8
2022-10-17T12:46:17.090Z,996.8
2022-10-17T12:48:00.531Z,996.8
2022-10-17T12:49:06.961Z,996.8
2022-10-17T12:50:50.445Z,996.8
2022-10-17T12:51:56.871Z,996.8
2022-10-17T12:54:47.551Z,996.8
2022-10-17T12:56:11.719Z,996.7
2022-10-17T12:57:36.725Z,996.7
2022-10-17T12:59:01.603Z,996.7
2022-10-17T13:00:26.610Z,996.7
2022-10-17T13:01:51.572Z,996.7
2022-10-17T13:03:16.469Z,996.7
2022-10-17T13:04:41.419Z,996.7
2022-10-17T13:06:06.364Z,996.6
2022-10-17T13:07:31.604Z,996.6
2022-10-17T13:08:59.828Z,996.6
2022-10-17T13:10:21.239Z,996.6
2022-10-17T13:11:27.644Z,996.6
2022-10-17T13:12:36.587Z,996.6
2022-10-17T13:13:40.752Z,996.6
2022-10-17T13:14:47.143Z,996.6
2022-10-17T13:15:53.597Z,996.6
2022-10-17T13:16:59.983Z,996.6
2022-10-17T13:18:06.423Z,996.6
2022-10-17T13:20:22.773Z,996.7
2022-10-17T13:21:25.697Z,996.7
2022-10-17T13:22:32.674Z,996.7
2022-10-17T13:23:38.533Z,996.7
2022-10-17T13:24:44.962Z,996.7
2022-10-17T13:25:51.390Z,996.7
2022-10-17T13:26:57.808Z,996.7
2022-10-17T13:28:04.268Z,996.7
2022-10-17T13:30:17.107Z,996.7
2022-10-17T13:31:42.033Z,996.7
2022-10-17T13:33:06.960Z,996.7
2022-10-17T13:34:31.999Z,996.6
2022-10-17T13:36:00.249Z,996.6
2022-10-17T13:37:40.340Z,996.6
2022-10-17T13:38:46.791Z,996.6
2022-10-17T13:40:31.096Z,996.7
2022-10-17T13:41:37.261Z,996.7
2022-10-17T13:43:20.140Z,996.7
2022-10-17T13:44:26.584Z,996.7
2022-10-17T13:45:51.551Z,996.7
2022-10-17T13:46:57.919Z,996.7
2022-10-17T13:48:04.355Z,996.7
2022-10-17T13:49:10.767Z,996.7
2022-10-17T13:50:32.697Z,996.7
2022-10-17T13:52:30.510Z,996.7
2022-10-17T13:53:36.487Z,996.7
2022-10-17T13:54:42.902Z,996.7
2022-10-17T13:58:02.665Z,996.8
2022-10-17T13:59:27.587Z,996.8
2022-10-17T14:00:52.631Z,996.8
2022-10-17T14:02:17.530Z,996.8
2022-10-17T14:03:48.465Z,996.8
2022-10-17T14:05:22.966Z,996.8
2022-10-17T14:06:52.205Z,996.8
2022-10-17T14:08:15.192Z,996.8
2022-10-17T14:09:22.257Z,996.8
2022-10-17T14:11:05.734Z,996.8
2022-10-17T14:12:12.141Z,996.8
2022-10-17T14:13:37.080Z,996.9
2022-10-17T14:15:05.531Z,996.9
2022-10-17T14:15:49.943Z,996.9
2022-10-17T14:16:56.382Z,996.9
2022-10-17T14:18:06.806Z,996.9
2022-10-17T14:19:09.208Z,996.9
2022-10-17T14:20:48.144Z,996.9
2022-10-17T14:21:40.794Z,996.9
2022-10-17T14:22:28.791Z,997
2022-10-17T14:23:35.302Z,997
2022-10-17T14:25:48.056Z,997
2022-10-17T14:26:54.662Z,997
2022-10-17T14:28:00.934Z,997
2022-10-17T14:29:07.398Z,997
2022-10-17T14:30:13.765Z,997
2022-10-17T14:31:20.195Z,997
2022-10-17T14:33:33.387Z,996.9
2022-10-17T14:35:05.657Z,996.9
2022-10-17T14:36:22.947Z,996.9
2022-10-17T14:37:47.898Z,996.9
2022-10-17T14:39:14.454Z,996.9
2022-10-17T14:40:38.321Z,996.9
2022-10-17T14:42:21.845Z,996.9
2022-10-17T14:43:28.287Z,996.9
2022-10-17T14:44:53.152Z,996.9
2022-10-17T14:46:18.105Z,996.9
2022-10-17T14:48:01.581Z,996.9
2022-10-17T14:50:33.009Z,996.9
2022-10-17T14:51:44.642Z,997
2022-10-17T14:52:45.792Z,997
2022-10-17T14:53:52.331Z,997
2022-10-17T14:54:58.745Z,997.1
2022-10-17T14:56:05.167Z,997.1
2022-10-17T14:57:11.627Z,997.1
2022-10-17T14:58:18.034Z,997.1
2022-10-17T15:00:30.882Z,997.1
2022-10-17T15:01:37.288Z,997.1
2022-10-17T15:02:43.725Z,997.2
2022-10-17T15:03:50.127Z,997.2
2022-10-17T15:04:56.565Z,997.2
2022-10-17T15:06:03.033Z,997.2
2022-10-17T15:07:09.476Z,997.2
2022-10-17T15:08:15.843Z,997.2
2022-10-17T15:09:22.281Z,997.2
2022-10-17T15:10:28.695Z,997.2
2022-10-17T15:11:35.116Z,997.2
2022-10-17T15:12:47.874Z,997.2
2022-10-17T15:13:48.478Z,997.2
2022-10-17T15:14:54.916Z,997.3
2022-10-17T15:16:01.330Z,997.3
2022-10-17T15:17:07.758Z,997.3
2022-10-17T15:18:14.182Z,997.3
2022-10-17T15:19:20.605Z,997.3
2022-10-17T15:20:27.027Z,997.3
2022-10-17T15:21:39.434Z,997.3
2022-10-17T15:22:39.888Z,997.3
2022-10-17T15:23:46.319Z,997.3
2022-10-17T15:24:52.733Z,997.4
2022-10-17T15:25:59.157Z,997.4
2022-10-17T15:27:05.582Z,997.4
2022-10-17T15:28:12.030Z,997.4
2022-10-17T15:29:18.425Z,997.4
2022-10-17T15:30:24.874Z,997.4
2022-10-17T15:31:31.351Z,997.4
2022-10-17T15:32:37.788Z,997.4
2022-10-17T15:33:44.201Z,997.5
2022-10-17T15:34:50.638Z,997.5
2022-10-17T15:37:03.504Z,997.5
2022-10-17T15:38:09.913Z,997.5
2022-10-17T15:39:16.361Z,997.4
2022-10-17T15:40:22.762Z,997.4
2022-10-17T15:41:48.107Z,997.4
2022-10-17T15:42:54.569Z,997.3
2022-10-17T15:44:00.951Z,997.3
2022-10-17T15:46:13.811Z,997.3
2022-10-17T15:47:20.226Z,997.3
2022-10-17T15:48:26.643Z,997.3
2022-10-17T15:49:33.067Z,997.3
2022-10-17T15:50:39.594Z,997.3
2022-10-17T15:51:45.934Z,997.3
2022-10-17T15:52:52.403Z,997.4
2022-10-17T15:53:58.818Z,997.4
2022-10-17T15:55:05.448Z,997.4
2022-10-17T15:56:11.777Z,997.4
2022-10-17T15:57:18.039Z,997.5
2022-10-17T15:58:24.478Z,997.5
2022-10-17T15:59:30.971Z,997.5
2022-10-17T16:00:37.484Z,997.5
2022-10-17T16:01:43.807Z,997.5
2022-10-17T16:02:50.239Z,997.5
2022-10-17T16:03:56.667Z,997.5
2022-10-17T16:05:03.139Z,997.5
2022-10-17T16:06:09.638Z,997.5
2022-10-17T16:07:15.936Z,997.5
2022-10-17T16:08:22.429Z,997.5
2022-10-17T16:09:28.798Z,997.5
2022-10-17T16:10:35.223Z,997.5
2022-10-17T16:12:48.066Z,997.5
2022-10-17T16:13:54.485Z,997.5
2022-10-17T16:15:00.926Z,997.5
2022-10-17T16:16:07.349Z,997.6
2022-10-17T16:17:13.766Z,997.6
2022-10-17T16:18:20.611Z,997.6
2022-10-17T16:19:27.056Z,997.7
2022-10-17T16:20:33.462Z,997.7
2022-10-17T16:21:39.890Z,997.7
2022-10-17T16:22:46.337Z,997.8
2022-10-17T16:23:52.784Z,997.8
2022-10-17T16:24:59.204Z,997.8
2022-10-17T16:26:05.578Z,997.8
2022-10-17T16:27:12.029Z,997.8
2022-10-17T16:28:18.481Z,997.8
2022-10-17T16:29:24.864Z,997.8
2022-10-17T16:31:37.733Z,997.8
2022-10-17T16:32:44.159Z,997.8
2022-10-17T16:34:57.022Z,997.8
2022-10-17T16:36:40.448Z,997.8
2022-10-17T16:37:47.334Z,997.8
2022-10-17T16:39:12.752Z,997.8
2022-10-17T16:40:37.648Z,997.8
2022-10-17T16:42:02.611Z,997.8
2022-10-17T16:43:27.549Z,997.8
2022-10-17T16:44:52.514Z,997.8
2022-10-17T16:46:17.513Z,997.8
2022-10-17T16:47:42.397Z,997.8
2022-10-17T16:49:07.355Z,997.8
2022-10-17T16:50:32.312Z,997.8
2022-10-17T16:51:38.746Z,997.8
2022-10-17T16:52:45.147Z,997.8
2022-10-17T16:54:58.008Z,997.8
2022-10-17T16:56:04.418Z,997.9
2022-10-17T16:58:17.258Z,997.9
2022-10-17T16:59:23.695Z,997.9
2022-10-17T17:00:30.197Z,997.9
2022-10-17T17:01:36.668Z,997.9
2022-10-17T17:02:43.100Z,997.9
2022-10-17T17:04:26.552Z,997.9
2022-10-17T17:05:32.984Z,997.9
2022-10-17T17:06:57.940Z,997.9
2022-10-17T17:08:22.898Z,997.9
2022-10-17T17:09:47.834Z,997.9
2022-10-17T17:11:12.810Z,997.9
2022-10-17T17:12:56.256Z,997.9
2022-10-17T17:14:02.690Z,997.9
2022-10-17T17:15:27.636Z,998
2022-10-17T17:16:52.826Z,997.9
2022-10-17T17:18:17.776Z,997.9
2022-10-17T17:19:24.195Z,997.9
2022-10-17T17:20:30.644Z,997.9
2022-10-17T17:21:37.045Z,997.9
2022-10-17T17:22:43.458Z,997.9
2022-10-17T17:23:49.912Z,997.9
2022-10-17T17:24:56.346Z,997.9
2022-10-17T17:26:02.751Z,997.9
2022-10-17T17:27:10.059Z,998
2022-10-17T17:28:16.004Z,998
2022-10-17T17:29:22.448Z,998
2022-10-17T17:30:28.860Z,998
2022-10-17T17:32:41.736Z,998
2022-10-17T17:34:54.574Z,997.9